Time;durP1;ratioP1;P1;durP2;ratioP2;P2;SDS_P1;SDS_P2;PMS_P1;PMS_P2;Temp;Humidity;BMP_temperature;BMP_pressure;BME280_temperature;BME280_humidity;BME280_pressure;Samples;Min_cycle;Max_cycle;Signal;HPM_P1;HPM_P2
2023/09/09 00:01:07;;;;;;;8.02;4.72;;;18.30;99.90;;;;;;4971936;28;20046;-60
2023/09/09 00:03:33;;;;;;;6.35;3.92;;;18.30;99.90;;;;;;4970737;28;20452;-60
2023/09/09 00:06:06;;;;;;;7.20;3.83;;;18.30;99.90;;;;;;4970621;28;20395;-60
2023/09/09 00:08:31;;;;;;;9.70;4.78;;;18.30;99.90;;;;;;4968736;28;20055;-60
2023/09/09 00:10:57;;;;;;;7.32;4.55;;;18.30;99.90;;;;;;4969430;28;20089;-60
2023/09/09 00:13:23;;;;;;;8.77;4.57;;;18.30;99.90;;;;;;4969950;28;20069;-60
2023/09/09 00:15:53;;;;;;;9.55;4.03;;;18.30;99.90;;;;;;4969151;28;20119;-60
2023/09/09 00:18:19;;;;;;;10.57;4.88;;;18.30;99.90;;;;;;4970564;28;20045;-60
2023/09/09 00:20:45;;;;;;;8.43;5.15;;;18.30;99.90;;;;;;4957473;28;20565;-60
2023/09/09 00:23:11;;;;;;;5.10;3.22;;;18.30;99.90;;;;;;4970342;28;20104;-60
2023/09/09 00:25:38;;;;;;;6.85;3.80;;;18.30;99.90;;;;;;4952945;28;20414;-60
2023/09/09 00:28:04;;;;;;;5.85;3.30;;;18.20;99.90;;;;;;4936639;28;20053;-60
2023/09/09 00:30:30;;;;;;;5.65;3.15;;;18.20;99.90;;;;;;4952640;28;20545;-60
2023/09/09 00:32:58;;;;;;;5.18;2.90;;;18.10;99.90;;;;;;4951582;28;20047;-60
2023/09/09 00:35:23;;;;;;;6.78;3.33;;;18.10;99.90;;;;;;4949312;28;20055;-60
2023/09/09 00:37:49;;;;;;;5.05;3.15;;;18.00;99.90;;;;;;4950621;29;20472;-60
2023/09/09 00:40:15;;;;;;;5.88;3.58;;;17.90;99.90;;;;;;4933778;29;20052;-60
2023/09/09 00:42:41;;;;;;;5.18;3.35;;;17.90;99.90;;;;;;4971054;28;20046;-60
2023/09/09 00:45:07;;;;;;;6.63;3.65;;;17.80;99.90;;;;;;4989378;28;20554;-60
2023/09/09 00:47:34;;;;;;;6.22;3.70;;;17.80;99.90;;;;;;4971944;28;20053;-60
2023/09/09 00:50:00;;;;;;;8.55;4.30;;;17.80;99.90;;;;;;4958477;28;20051;-60
2023/09/09 00:52:26;;;;;;;5.20;3.20;;;17.70;99.90;;;;;;5070461;28;20163;-60
2023/09/09 00:54:52;;;;;;;9.07;4.07;;;17.70;99.90;;;;;;5053522;28;20080;-60
2023/09/09 00:57:19;;;;;;;6.85;3.63;;;17.70;99.90;;;;;;4992641;28;20043;-60
2023/09/09 00:59:46;;;;;;;5.82;3.60;;;17.70;99.90;;;;;;4969358;28;20109;-60
2023/09/09 01:02:12;;;;;;;6.35;3.92;;;17.70;99.90;;;;;;4968732;28;20043;-60
2023/09/09 01:04:38;;;;;;;7.40;4.25;;;17.60;99.90;;;;;;4959404;28;20384;-60
2023/09/09 01:07:04;;;;;;;7.13;3.83;;;17.60;99.90;;;;;;4952254;28;20046;-60
2023/09/09 01:09:31;;;;;;;6.75;3.55;;;17.60;99.90;;;;;;4968946;28;20117;-60
2023/09/09 01:12:01;;;;;;;5.70;3.75;;;17.60;99.90;;;;;;4969876;28;20103;-60
2023/09/09 01:14:26;;;;;;;8.35;4.22;;;17.60;99.90;;;;;;4969633;28;20494;-60
2023/09/09 01:16:53;;;;;;;3.85;2.88;;;17.60;99.90;;;;;;5021664;28;20131;-60
2023/09/09 01:19:21;;;;;;;5.57;3.10;;;17.60;99.90;;;;;;5071016;28;20040;-60
2023/09/09 01:21:47;;;;;;;3.92;2.78;;;17.60;99.90;;;;;;5053427;28;20038;-60
2023/09/09 01:24:15;;;;;;;5.75;3.28;;;17.60;99.90;;;;;;4932448;29;20100;-60
2023/09/09 01:26:43;;;;;;;5.40;2.92;;;17.60;99.90;;;;;;4937371;28;20043;-60
2023/09/09 01:29:09;;;;;;;5.28;2.70;;;17.50;99.90;;;;;;4951014;28;20050;-60
2023/09/09 01:31:35;;;;;;;4.07;2.65;;;17.50;99.90;;;;;;4949044;28;20075;-60
2023/09/09 01:34:01;;;;;;;3.05;1.75;;;17.50;99.90;;;;;;5032845;28;20078;-60
2023/09/09 01:36:27;;;;;;;3.17;2.10;;;17.40;99.90;;;;;;4948762;28;20043;-60
2023/09/09 01:38:53;;;;;;;3.20;2.53;;;17.40;99.90;;;;;;5026269;28;20057;-60
2023/09/09 01:41:19;;;;;;;4.13;2.30;;;17.40;99.90;;;;;;4969488;28;20091;-60
2023/09/09 01:43:44;;;;;;;3.60;2.40;;;17.30;99.90;;;;;;5035811;28;20101;-60
2023/09/09 01:46:10;;;;;;;5.03;2.72;;;17.30;99.90;;;;;;4968571;28;20047;-60
2023/09/09 01:48:37;;;;;;;5.55;3.28;;;17.20;99.90;;;;;;4969063;28;20042;-60
2023/09/09 01:51:03;;;;;;;6.43;3.60;;;17.10;99.90;;;;;;5036012;28;20095;-60
2023/09/09 01:53:29;;;;;;;5.45;3.30;;;17.20;99.90;;;;;;4968307;28;20433;-60
2023/09/09 01:55:58;;;;;;;8.05;4.05;;;17.20;99.90;;;;;;5035648;28;20039;-60
2023/09/09 01:58:24;;;;;;;7.07;3.53;;;17.10;99.90;;;;;;5035304;28;20093;-60
2023/09/09 02:00:50;;;;;;;6.03;3.78;;;17.10;99.90;;;;;;4968289;28;20081;-60
2023/09/09 02:03:15;;;;;;;10.13;4.35;;;17.10;99.90;;;;;;4968885;28;20402;-60
2023/09/09 02:05:41;;;;;;;8.30;4.63;;;17.10;99.90;;;;;;4966978;28;20043;-60
2023/09/09 02:08:07;;;;;;;8.48;4.53;;;17.10;99.90;;;;;;4967531;28;20050;-60
2023/09/09 02:10:33;;;;;;;8.70;4.50;;;17.00;99.90;;;;;;4967517;28;20058;-60
2023/09/09 02:12:58;;;;;;;11.20;5.35;;;17.10;99.90;;;;;;4967021;28;20133;-60
2023/09/09 02:15:24;;;;;;;8.65;4.28;;;17.00;99.90;;;;;;4968695;28;20410;-60
2023/09/09 02:17:50;;;;;;;6.43;4.00;;;17.10;99.90;;;;;;5035140;28;20046;-60
2023/09/09 02:20:16;;;;;;;7.72;4.78;;;17.10;99.90;;;;;;5034416;28;20054;-60
2023/09/09 02:22:42;;;;;;;7.93;4.80;;;17.10;99.90;;;;;;5035119;28;20049;-60
2023/09/09 02:25:08;;;;;;;10.13;5.07;;;17.10;99.90;;;;;;4968888;28;20039;-60
2023/09/09 02:27:34;;;;;;;11.95;5.50;;;17.10;99.90;;;;;;4948927;28;20491;-60
2023/09/09 02:30:04;;;;;;;9.77;4.72;;;17.10;99.90;;;;;;4948950;28;20055;-60
2023/09/09 02:32:30;;;;;;;9.40;5.47;;;17.20;99.90;;;;;;4957216;28;20050;-60
2023/09/09 02:34:57;;;;;;;8.25;5.05;;;17.20;99.90;;;;;;5034135;28;20138;-60
2023/09/09 02:37:24;;;;;;;10.68;5.22;;;17.20;99.90;;;;;;4968610;28;20058;-60
2023/09/09 02:39:51;;;;;;;12.35;5.65;;;17.30;99.90;;;;;;5034590;28;20055;-60
2023/09/09 02:42:20;;;;;;;12.52;6.30;;;17.30;99.90;;;;;;4982987;28;20087;-60
2023/09/09 02:44:46;;;;;;;11.88;5.57;;;17.30;99.90;;;;;;5051804;28;20052;-60
2023/09/09 02:47:13;;;;;;;9.45;5.38;;;17.30;99.90;;;;;;5069733;28;20040;-60
2023/09/09 02:49:39;;;;;;;10.98;5.38;;;17.30;99.90;;;;;;5069198;28;20051;-60
2023/09/09 02:52:06;;;;;;;9.48;5.10;;;17.20;99.90;;;;;;5051616;28;20051;-60
2023/09/09 02:54:33;;;;;;;13.52;5.95;;;17.20;99.90;;;;;;5051264;28;20059;-60
2023/09/09 02:56:59;;;;;;;11.15;5.93;;;17.10;99.90;;;;;;5005231;28;20039;-60
2023/09/09 02:59:25;;;;;;;9.57;6.03;;;17.10;99.90;;;;;;4967662;28;20531;-60
2023/09/09 03:01:51;;;;;;;15.68;5.93;;;17.20;99.90;;;;;;4967491;28;20092;-60
2023/09/09 03:04:17;;;;;;;12.38;5.90;;;17.20;99.90;;;;;;4966814;28;20058;-60
2023/09/09 03:06:44;;;;;;;9.23;5.53;;;17.30;99.90;;;;;;4968018;28;20053;-60
2023/09/09 03:09:10;;;;;;;10.23;5.72;;;17.20;99.90;;;;;;4967557;28;20063;-60
2023/09/09 03:11:35;;;;;;;10.77;6.00;;;17.20;99.90;;;;;;4968141;28;20407;-60
2023/09/09 03:14:01;;;;;;;12.50;6.45;;;17.20;99.90;;;;;;4966695;28;20403;-60
2023/09/09 03:16:27;;;;;;;11.65;6.20;;;17.20;99.90;;;;;;4974532;28;20035;-60
2023/09/09 03:18:53;;;;;;;11.55;5.10;;;17.20;99.90;;;;;;5034291;28;20051;-60
2023/09/09 03:21:18;;;;;;;9.07;5.28;;;17.20;99.90;;;;;;5034656;28;20050;-60
2023/09/09 03:23:45;;;;;;;10.18;5.85;;;17.20;99.90;;;;;;5015711;28;20043;-60
2023/09/09 03:26:18;;;;;;;11.30;5.85;;;17.10;99.90;;;;;;5031755;28;20066;-60
2023/09/09 03:28:47;;;;;;;19.95;6.18;;;17.00;99.90;;;;;;5014952;28;20126;-60
2023/09/09 03:31:12;;;;;;;11.80;4.53;;;17.00;99.90;;;;;;4946550;28;20065;-60
2023/09/09 03:33:39;;;;;;;13.07;5.80;;;16.90;99.90;;;;;;4948506;28;20051;-60
2023/09/09 03:36:05;;;;;;;14.68;5.03;;;16.80;99.90;;;;;;5014785;28;20051;-60
2023/09/09 03:38:31;;;;;;;9.10;4.57;;;16.80;99.90;;;;;;5021627;28;20069;-60
2023/09/09 03:40:56;;;;;;;10.90;6.35;;;16.80;99.90;;;;;;4992398;28;20044;-60
2023/09/09 03:43:22;;;;;;;7.60;4.30;;;16.80;99.90;;;;;;5054596;28;20037;-60
2023/09/09 03:45:54;;;;;;;8.10;5.32;;;16.90;99.90;;;;;;5072475;28;20033;-60
2023/09/09 03:48:20;;;;;;;11.43;5.35;;;16.80;99.90;;;;;;5054895;28;20044;-60
2023/09/09 03:50:46;;;;;;;8.02;4.50;;;16.80;99.90;;;;;;5054386;28;20047;-60
2023/09/09 03:53:12;;;;;;;8.77;5.88;;;16.90;99.90;;;;;;5054664;28;20507;-60
2023/09/09 03:55:37;;;;;;;8.25;4.82;;;16.80;99.90;;;;;;5065447;28;20086;-60
2023/09/09 03:58:03;;;;;;;11.93;5.50;;;16.80;99.90;;;;;;4969986;28;20039;-60
2023/09/09 04:00:29;;;;;;;9.55;5.60;;;16.80;99.90;;;;;;4969520;28;20073;-60
2023/09/09 04:02:54;;;;;;;11.57;6.00;;;16.80;99.90;;;;;;4969928;28;20035;-60
2023/09/09 04:05:20;;;;;;;9.80;5.53;;;16.80;99.90;;;;;;5036419;28;20039;-60
2023/09/09 04:07:46;;;;;;;9.13;4.78;;;16.80;99.90;;;;;;5037381;28;20114;-60
2023/09/09 04:10:12;;;;;;;12.20;6.75;;;16.80;99.90;;;;;;5020999;28;20039;-60
2023/09/09 04:12:38;;;;;;;11.10;6.70;;;16.80;99.90;;;;;;5060494;28;20047;-60
2023/09/09 04:15:06;;;;;;;10.10;6.07;;;16.70;99.90;;;;;;5045843;28;20045;-60
2023/09/09 04:17:32;;;;;;;12.50;4.68;;;16.80;99.90;;;;;;4969803;28;20095;-60
2023/09/09 04:19:57;;;;;;;10.90;6.03;;;16.70;99.90;;;;;;4949918;28;20045;-60
2023/09/09 04:22:25;;;;;;;11.95;5.75;;;16.60;99.90;;;;;;5016364;28;20072;-60
2023/09/09 04:24:53;;;;;;;14.32;5.50;;;16.60;99.90;;;;;;5016625;28;20538;-60
2023/09/09 04:27:21;;;;;;;;;;;16.40;99.90;;;;;;5015963;28;20051;-60
2023/09/09 04:29:47;;;;;;;9.82;5.15;;;16.30;99.90;;;;;;4949785;28;19930;-60
2023/09/09 04:32:13;;;;;;;10.82;4.93;;;16.20;99.90;;;;;;5032636;28;20047;-60
2023/09/09 04:34:39;;;;;;;9.43;4.95;;;16.20;99.90;;;;;;5033236;28;20134;-60
2023/09/09 04:37:05;;;;;;;10.48;5.25;;;16.20;99.90;;;;;;5016325;28;20047;-60
2023/09/09 04:39:31;;;;;;;8.93;4.68;;;16.10;99.90;;;;;;5044654;28;20058;-60
2023/09/09 04:41:56;;;;;;;7.70;4.03;;;16.10;99.90;;;;;;4950008;28;20058;-60
2023/09/09 04:44:22;;;;;;;7.45;3.78;;;16.10;99.90;;;;;;4949900;28;20036;-60
2023/09/09 04:46:48;;;;;;;7.38;3.70;;;16.00;99.90;;;;;;4949329;29;20388;-60
2023/09/09 04:49:17;;;;;;;6.22;3.83;;;16.00;99.90;;;;;;5027499;28;20054;-60
2023/09/09 04:51:52;;;;;;;5.38;3.28;;;16.00;99.90;;;;;;5035297;28;20497;-60
2023/09/09 04:54:18;;;;;;;5.47;3.05;;;15.90;99.90;;;;;;5035985;28;20046;-60
2023/09/09 04:56:46;;;;;;;5.75;2.97;;;15.90;99.90;;;;;;5025452;28;20047;-60
2023/09/09 04:59:12;;;;;;;5.88;3.08;;;15.80;99.90;;;;;;4954259;28;20043;-60
2023/09/09 05:01:37;;;;;;;5.95;3.47;;;15.80;99.90;;;;;;4967189;28;20065;-60
2023/09/09 05:04:04;;;;;;;4.72;3.13;;;15.80;99.90;;;;;;4967727;28;20188;-60
2023/09/09 05:06:30;;;;;;;4.72;2.83;;;15.80;99.90;;;;;;4968845;28;20042;-60
2023/09/09 05:08:56;;;;;;;6.78;3.25;;;15.80;99.90;;;;;;5026363;28;20401;-60
2023/09/09 05:11:21;;;;;;;5.20;3.17;;;15.70;99.90;;;;;;5053641;28;20069;-60
2023/09/09 05:13:47;;;;;;;5.75;3.47;;;15.70;99.90;;;;;;5066945;28;20048;-59
2023/09/09 05:16:13;;;;;;;6.25;3.30;;;15.60;99.90;;;;;;4978002;28;20050;-60
2023/09/09 05:18:39;;;;;;;6.63;3.53;;;15.60;99.90;;;;;;5019008;28;20043;-60
2023/09/09 05:21:04;;;;;;;8.13;4.65;;;15.50;99.90;;;;;;5035552;28;20479;-59
2023/09/09 05:23:30;;;;;;;7.55;2.83;;;15.50;99.90;;;;;;5034850;28;20055;-59
2023/09/09 05:25:56;;;;;;;3.78;2.15;;;15.50;99.90;;;;;;5035549;28;20046;-59
2023/09/09 05:28:22;;;;;;;5.38;3.58;;;15.40;99.90;;;;;;4968040;28;20046;-59
2023/09/09 05:30:47;;;;;;;6.65;3.80;;;15.40;99.90;;;;;;5048294;28;20045;-59
2023/09/09 05:33:13;;;;;;;6.15;3.85;;;15.30;99.90;;;;;;5065425;28;20048;-59
2023/09/09 05:35:39;;;;;;;10.38;4.22;;;15.30;99.90;;;;;;5049250;28;20396;-60
2023/09/09 05:38:04;;;;;;;4.72;3.47;;;15.40;99.90;;;;;;5049940;28;20473;-60
2023/09/09 05:40:30;;;;;;;5.63;3.13;;;15.40;99.90;;;;;;5049802;28;20382;-60
2023/09/09 05:42:56;;;;;;;6.88;3.88;;;15.40;99.90;;;;;;5047857;28;20045;-60
2023/09/09 05:45:22;;;;;;;5.80;3.58;;;15.50;99.90;;;;;;5048650;28;20115;-60
2023/09/09 05:47:47;;;;;;;5.05;3.45;;;15.50;99.90;;;;;;5048532;28;20492;-60
2023/09/09 05:50:13;;;;;;;5.10;3.10;;;15.50;99.90;;;;;;5049209;28;20041;-60
2023/09/09 05:52:39;;;;;;;6.18;3.55;;;15.60;99.90;;;;;;5044812;28;20033;-60
2023/09/09 05:55:05;;;;;;;6.63;3.95;;;15.60;99.90;;;;;;5028399;28;20187;-60
2023/09/09 05:57:34;;;;;;;4.75;3.08;;;15.70;99.90;;;;;;5027810;28;20041;-60
2023/09/09 06:00:00;;;;;;;9.02;3.42;;;15.70;99.90;;;;;;5039539;28;20075;-60
2023/09/09 06:02:26;;;;;;;8.93;3.17;;;15.80;99.90;;;;;;5047571;28;20048;-60
2023/09/09 06:04:52;;;;;;;5.43;3.00;;;15.90;99.90;;;;;;5063525;28;20040;-60
2023/09/09 06:07:19;;;;;;;4.20;2.47;;;16.00;99.90;;;;;;5069338;28;20036;-60
2023/09/09 06:09:45;;;;;;;6.63;3.22;;;16.10;99.90;;;;;;5048715;28;20063;-60
2023/09/09 06:12:11;;;;;;;5.45;3.17;;;16.10;99.90;;;;;;5048808;28;20036;-60
2023/09/09 06:14:36;;;;;;;4.38;3.15;;;16.20;99.90;;;;;;5047967;28;20052;-60
2023/09/09 06:17:02;;;;;;;6.60;3.90;;;16.30;99.90;;;;;;5049279;28;20120;-60
2023/09/09 06:19:28;;;;;;;6.68;3.92;;;16.40;99.90;;;;;;5048734;28;20052;-60
2023/09/09 06:21:54;;;;;;;5.80;3.78;;;16.60;99.90;;;;;;5049177;28;20048;-60
2023/09/09 06:24:20;;;;;;;6.47;3.78;;;16.90;99.90;;;;;;5048674;28;20045;-60
2023/09/09 06:26:45;;;;;;;7.63;4.25;;;17.20;99.90;;;;;;5031132;28;20481;-60
2023/09/09 06:29:12;;;;;;;7.10;4.13;;;17.50;99.90;;;;;;5049051;28;20048;-61
2023/09/09 06:31:39;;;;;;;6.65;4.40;;;17.80;99.90;;;;;;5046916;28;20057;-60
2023/09/09 06:34:04;;;;;;;7.25;4.45;;;18.10;99.90;;;;;;5048913;28;20049;-60
2023/09/09 06:36:30;;;;;;;6.60;4.07;;;18.40;99.90;;;;;;5049007;28;20048;-60
2023/09/09 06:38:56;;;;;;;5.10;3.72;;;18.70;99.90;;;;;;5046865;28;20455;-60
2023/09/09 06:41:22;;;;;;;7.95;4.80;;;18.90;99.90;;;;;;5047609;28;20045;-60
2023/09/09 06:43:48;;;;;;;9.32;4.55;;;19.10;99.90;;;;;;5047571;28;20044;-61
2023/09/09 06:46:14;;;;;;;6.18;4.10;;;19.30;99.90;;;;;;5047136;28;20045;-60
2023/09/09 06:48:40;;;;;;;6.93;4.07;;;19.50;99.90;;;;;;5043070;28;20496;-60
2023/09/09 06:51:06;;;;;;;8.40;5.40;;;19.60;99.90;;;;;;5029310;28;20036;-60
2023/09/09 06:53:32;;;;;;;8.52;4.95;;;19.70;99.90;;;;;;5026825;28;20073;-60
2023/09/09 06:55:58;;;;;;;11.98;6.82;;;19.80;99.90;;;;;;5030497;28;20051;-60
2023/09/09 06:58:23;;;;;;;11.75;6.45;;;19.80;99.90;;;;;;5047744;28;20049;-61
2023/09/09 07:00:53;;;;;;;12.38;6.18;;;19.80;99.90;;;;;;5060227;28;20044;-61
2023/09/09 07:03:19;;;;;;;;;;;19.80;99.90;;;;;;5067784;28;20036;-61
2023/09/09 07:05:45;;;;;;;10.65;5.70;;;19.90;99.90;;;;;;5050093;28;19988;-60
2023/09/09 07:08:10;;;;;;;10.68;6.80;;;19.90;99.90;;;;;;5046618;28;20426;-60
2023/09/09 07:10:36;;;;;;;14.93;7.75;;;19.90;99.90;;;;;;5047549;28;20485;-60
2023/09/09 07:13:03;;;;;;;15.00;8.40;;;20.00;99.90;;;;;;5047223;28;20400;-60
2023/09/09 07:15:29;;;;;;;17.02;8.75;;;20.10;99.90;;;;;;5051587;28;20040;-61
2023/09/09 07:17:55;;;;;;;17.30;10.23;;;20.20;99.90;;;;;;5052485;28;20040;-60
2023/09/09 07:20:21;;;;;;;17.55;10.23;;;20.20;99.90;;;;;;5050734;28;20512;-60
2023/09/09 07:22:47;;;;;;;27.00;11.85;;;20.40;99.90;;;;;;5050608;28;20368;-60
2023/09/09 07:25:13;;;;;;;19.83;11.25;;;20.50;99.90;;;;;;5051338;28;20060;-61
2023/09/09 07:27:39;;;;;;;20.45;11.80;;;20.60;99.90;;;;;;5052038;28;20485;-60
2023/09/09 07:30:06;;;;;;;21.27;11.50;;;20.70;99.90;;;;;;5027237;28;20124;-61
2023/09/09 07:32:32;;;;;;;24.83;12.57;;;20.80;99.90;;;;;;4969971;28;20042;-60
2023/09/09 07:35:02;;;;;;;24.02;11.38;;;20.90;99.90;;;;;;5020384;28;20092;-61
2023/09/09 07:37:28;;;;;;;21.42;11.30;;;21.00;99.90;;;;;;4970355;28;20050;-61
2023/09/09 07:40:00;;;;;;;25.10;13.02;;;21.10;99.90;;;;;;4988629;28;20043;-61
2023/09/09 07:42:26;;;;;;;26.08;12.27;;;21.20;99.90;;;;;;4989099;28;20046;-61
2023/09/09 07:44:53;;;;;;;28.52;10.73;;;21.30;99.90;;;;;;5049459;28;20086;-61
2023/09/09 07:47:20;;;;;;;22.23;12.50;;;21.40;99.90;;;;;;4970191;28;20108;-60
2023/09/09 07:49:46;;;;;;;19.13;10.85;;;21.50;99.90;;;;;;5036697;28;20114;-61
2023/09/09 07:52:12;;;;;;;20.05;11.00;;;21.60;99.90;;;;;;5037210;28;20053;-61
2023/09/09 07:54:38;;;;;;;24.02;11.45;;;21.60;99.90;;;;;;5037213;28;20043;-61
2023/09/09 07:57:04;;;;;;;23.17;11.90;;;21.80;99.90;;;;;;4969399;28;20042;-61
2023/09/09 07:59:30;;;;;;;24.70;11.57;;;21.90;99.90;;;;;;5018700;28;20089;-61
2023/09/09 08:01:56;;;;;;;19.38;11.07;;;22.00;99.90;;;;;;4968837;28;20081;-61
2023/09/09 08:04:22;;;;;;;17.60;10.65;;;22.10;99.90;;;;;;4969228;28;20039;-61
2023/09/09 08:06:50;;;;;;;21.70;11.48;;;22.20;99.90;;;;;;4968836;28;20039;-61
2023/09/09 08:09:16;;;;;;;19.73;11.77;;;22.50;99.90;;;;;;5007000;28;20058;-61
2023/09/09 08:11:41;;;;;;;22.00;10.93;;;22.80;99.90;;;;;;4969247;28;20050;-61
2023/09/09 08:14:07;;;;;;;17.80;9.85;;;23.20;99.90;;;;;;5036839;28;20049;-61
2023/09/09 08:16:33;;;;;;;19.73;10.68;;;23.80;99.90;;;;;;5035994;28;20050;-61
2023/09/09 08:19:00;;;;;;;16.90;9.82;;;24.40;99.90;;;;;;5036675;28;20127;-61
2023/09/09 08:21:25;;;;;;;14.75;9.10;;;24.90;99.90;;;;;;5036886;28;20047;-61
2023/09/09 08:23:52;;;;;;;15.70;9.82;;;25.30;99.90;;;;;;4969050;28;20465;-61
2023/09/09 08:26:18;;;;;;;17.08;9.70;;;25.80;99.90;;;;;;4968748;28;20398;-61
2023/09/09 08:28:44;;;;;;;17.17;9.20;;;26.30;99.90;;;;;;5036508;28;20039;-61
2023/09/09 08:31:09;;;;;;;13.65;8.63;;;26.80;99.90;;;;;;4968954;28;20111;-61
2023/09/09 08:33:35;;;;;;;17.13;9.30;;;27.20;99.90;;;;;;5035946;28;20069;-61
2023/09/09 08:36:05;;;;;;;19.38;9.70;;;27.60;99.90;;;;;;5054219;28;20046;-61
2023/09/09 08:38:31;;;;;;;16.17;9.15;;;27.80;99.90;;;;;;4988233;28;20046;-61
2023/09/09 08:41:19;;;;;;;15.85;8.90;;;28.20;99.90;;;;;;4985658;28;20031;-61
2023/09/09 08:44:00;;;;;;;15.40;9.05;;;28.50;99.90;;;;;;5036262;28;20039;-61
2023/09/09 08:46:26;;;;;;;14.55;8.25;;;28.80;99.90;;;;;;4968891;28;20493;-61
2023/09/09 08:48:52;;;;;;;18.25;9.85;;;28.90;99.90;;;;;;5036259;28;20115;-61
2023/09/09 08:51:50;;;;;;;15.65;8.30;;;29.10;99.90;;;;;;4968808;28;20047;-61
2023/09/09 08:54:16;;;;;;;14.02;8.55;;;29.30;99.90;;;;;;5013299;28;20055;-61
2023/09/09 08:56:44;;;;;;;18.63;9.27;;;29.70;99.90;;;;;;4968979;28;20038;-61
2023/09/09 08:59:12;;;;;;;15.02;8.13;;;30.00;99.90;;;;;;4967827;28;20581;-61
2023/09/09 09:01:39;;;;;;;13.60;8.00;;;30.00;99.90;;;;;;4969063;28;20039;-61
2023/09/09 09:04:05;;;;;;;15.30;8.45;;;30.20;99.90;;;;;;4967904;28;20050;-62
2023/09/09 09:06:33;;;;;;;14.15;8.13;;;30.30;99.90;;;;;;4967312;28;20074;-62
2023/09/09 09:08:59;;;;;;;14.80;7.83;;;30.50;99.90;;;;;;4997450;28;20054;-61
2023/09/09 09:11:25;;;;;;;15.90;8.35;;;30.80;99.90;;;;;;5035625;28;20442;-61
2023/09/09 09:13:51;;;;;;;14.45;7.95;;;31.00;99.90;;;;;;4968275;28;20039;-61
2023/09/09 09:16:18;;;;;;;16.73;8.43;;;30.80;99.90;;;;;;4968665;28;20039;-61
2023/09/09 09:18:44;;;;;;;15.18;8.05;;;30.70;99.90;;;;;;5033047;28;20050;-61
2023/09/09 09:21:10;;;;;;;14.52;8.20;;;30.90;99.90;;;;;;5042818;28;20036;-61
2023/09/09 09:23:46;;;;;;;12.82;8.00;;;31.20;99.90;;;;;;5034258;28;20047;-61
2023/09/09 09:26:29;;;;;;;12.85;7.97;;;31.50;99.90;;;;;;4968723;28;20474;-61
2023/09/09 09:28:55;;;;;;;13.70;8.25;;;31.50;99.90;;;;;;5035366;28;20058;-61
2023/09/09 09:31:23;;;;;;;14.18;8.10;;;31.30;99.90;;;;;;5045467;28;20093;-61
2023/09/09 09:33:53;;;;;;;12.10;6.75;;;31.10;99.90;;;;;;5054464;28;20057;-61
2023/09/09 09:36:19;;;;;;;10.07;6.00;;;31.00;99.90;;;;;;4987995;28;20046;-61
2023/09/09 09:38:45;;;;;;;7.72;5.00;;;31.00;99.90;;;;;;5034543;28;20054;-61
2023/09/09 09:41:11;;;;;;;6.85;4.72;;;31.30;99.90;;;;;;5051107;28;20048;-62
2023/09/09 09:43:37;;;;;;;6.88;3.97;;;31.70;99.90;;;;;;5069690;28;20032;-61
2023/09/09 09:46:22;;;;;;;7.35;4.97;;;32.10;99.90;;;;;;5069671;28;20040;-61
2023/09/09 09:48:48;;;;;;;7.82;4.57;;;32.50;98.90;;;;;;5051109;28;20549;-61
2023/09/09 09:51:15;;;;;;;7.78;4.70;;;32.50;99.90;;;;;;5035117;28;20036;-61
2023/09/09 09:53:47;;;;;;;7.53;4.35;;;32.60;99.90;;;;;;4993685;28;20436;-61
2023/09/09 09:56:13;;;;;;;6.82;3.75;;;32.80;98.70;;;;;;5034504;28;20698;-61
2023/09/09 09:58:43;;;;;;;6.65;4.18;;;32.80;98.10;;;;;;4968049;28;20115;-61
2023/09/09 10:01:10;;;;;;;7.85;4.18;;;32.90;97.80;;;;;;4950774;28;20581;-61
2023/09/09 10:04:01;;;;;;;7.03;4.10;;;32.90;96.50;;;;;;4950416;28;20499;-61
2023/09/09 10:06:29;;;;;;;7.82;3.90;;;33.00;93.80;;;;;;4948927;28;20039;-61
2023/09/09 10:09:06;;;;;;;6.17;3.33;;;33.00;95.30;;;;;;5014124;28;20130;-61
2023/09/09 10:11:37;;;;;;;7.43;4.30;;;33.00;93.10;;;;;;4948969;28;20503;-61
2023/09/09 10:14:14;;;;;;;6.75;3.85;;;33.20;93.70;;;;;;4948912;28;20384;-62
2023/09/09 10:16:42;;;;;;;6.22;3.22;;;33.40;92.00;;;;;;4967323;28;20086;-62
2023/09/09 10:19:11;;;;;;;6.13;3.17;;;33.80;92.80;;;;;;4967814;28;20047;-61
2023/09/09 10:21:38;;;;;;;6.18;3.75;;;33.90;92.50;;;;;;4967718;28;20050;-61
2023/09/09 10:24:07;;;;;;;6.82;3.40;;;33.60;91.90;;;;;;5034149;28;20043;-61
2023/09/09 10:26:36;;;;;;;7.70;3.45;;;33.50;91.40;;;;;;4967771;28;20047;-62
2023/09/09 10:29:03;;;;;;;8.52;4.97;;;33.50;91.50;;;;;;5034339;28;20083;-61
2023/09/09 10:31:30;;;;;;;6.97;4.25;;;33.30;91.10;;;;;;4966865;28;20062;-62
2023/09/09 10:33:58;;;;;;;8.05;4.68;;;33.20;91.30;;;;;;5030839;28;20555;-62
2023/09/09 10:36:25;;;;;;;6.57;3.93;;;33.00;90.70;;;;;;5034102;28;20042;-62
2023/09/09 10:38:58;;;;;;;8.93;5.10;;;32.80;90.40;;;;;;5034037;28;20106;-62
2023/09/09 10:41:24;;;;;;;8.25;4.60;;;32.50;90.60;;;;;;4967558;28;20126;-62
2023/09/09 10:43:50;;;;;;;7.88;4.65;;;32.10;90.40;;;;;;5033638;28;20046;-62
2023/09/09 10:46:16;;;;;;;7.38;4.30;;;32.00;90.70;;;;;;4967485;28;20038;-62
2023/09/09 10:48:44;;;;;;;5.80;3.85;;;32.10;90.90;;;;;;4966793;28;20426;-63
2023/09/09 10:51:15;;;;;;;7.03;4.35;;;32.00;90.30;;;;;;5033498;28;20383;-63
2023/09/09 10:53:41;;;;;;;7.65;4.22;;;32.00;90.40;;;;;;5033641;28;20533;-62
2023/09/09 10:56:15;;;;;;;7.22;4.45;;;32.00;90.40;;;;;;4967537;28;20241;-62
2023/09/09 10:58:44;;;;;;;6.43;4.20;;;32.00;90.50;;;;;;4966548;28;20046;-63
2023/09/09 11:01:22;;;;;;;7.32;3.92;;;32.00;90.70;;;;;;4966968;28;20498;-62
2023/09/09 11:03:48;;;;;;;10.35;4.40;;;32.10;90.40;;;;;;4965765;28;20034;-62
2023/09/09 11:06:27;;;;;;;7.53;4.80;;;32.30;90.60;;;;;;4966667;28;20118;-63
2023/09/09 11:08:55;;;;;;;6.65;3.90;;;32.20;90.30;;;;;;4967253;28;20081;-62
2023/09/09 11:11:25;;;;;;;8.40;5.05;;;32.40;90.10;;;;;;4966716;28;20125;-62
2023/09/09 11:14:04;;;;;;;6.53;4.30;;;32.30;89.20;;;;;;5033375;28;20057;-62
2023/09/09 11:16:35;;;;;;;7.20;3.60;;;32.10;88.50;;;;;;4997496;28;20047;-63
2023/09/09 11:19:05;;;;;;;7.53;3.47;;;31.90;88.60;;;;;;5013641;28;20086;-62
2023/09/09 11:21:43;;;;;;;9.02;4.25;;;31.50;88.60;;;;;;4958041;28;20042;-62
2023/09/09 11:24:09;;;;;;;;;;;31.20;88.80;;;;;;5046837;28;20498;-62
2023/09/09 11:26:39;;;;;;;6.38;3.33;;;31.20;90.30;;;;;;5053086;28;19972;-63
2023/09/09 11:29:06;;;;;;;8.02;3.67;;;31.00;90.10;;;;;;5053716;28;20054;-62
2023/09/09 11:31:32;;;;;;;7.13;4.00;;;30.70;90.10;;;;;;5034048;28;20057;-62
2023/09/09 11:33:59;;;;;;;6.93;4.65;;;30.50;90.10;;;;;;5033185;28;20058;-62
2023/09/09 11:36:25;;;;;;;11.23;5.03;;;30.60;89.80;;;;;;4967514;28;20073;-62
2023/09/09 11:38:53;;;;;;;6.72;4.18;;;30.60;90.10;;;;;;5050969;28;20508;-62
2023/09/09 11:41:23;;;;;;;8.90;4.18;;;30.80;90.00;;;;;;5050941;28;20401;-62
2023/09/09 11:44:03;;;;;;;7.30;4.13;;;30.60;89.50;;;;;;5068096;28;20028;-62
2023/09/09 11:46:39;;;;;;;9.40;4.53;;;30.30;89.40;;;;;;5050573;28;20090;-62
2023/09/09 11:49:05;;;;;;;5.72;3.70;;;30.20;90.10;;;;;;5069101;28;20044;-63
2023/09/09 11:51:33;;;;;;;6.13;3.63;;;30.30;90.50;;;;;;5051241;28;20048;-63
2023/09/09 11:53:59;;;;;;;6.97;3.75;;;30.40;90.90;;;;;;5050403;28;20055;-62
2023/09/09 11:56:26;;;;;;;6.43;4.28;;;30.40;90.90;;;;;;5034287;28;20046;-63
2023/09/09 11:58:52;;;;;;;9.70;4.88;;;30.30;90.60;;;;;;5033799;28;20051;-63
2023/09/09 12:01:20;;;;;;;7.43;4.30;;;30.30;90.50;;;;;;4969377;28;20035;-63
2023/09/09 12:03:49;;;;;;;9.70;4.50;;;30.30;90.60;;;;;;4969247;28;20548;-63
2023/09/09 12:06:20;;;;;;;8.80;4.55;;;30.40;90.50;;;;;;5033608;28;20055;-63
2023/09/09 12:08:48;;;;;;;6.43;3.78;;;30.30;90.20;;;;;;4970018;28;20055;-63
2023/09/09 12:11:19;;;;;;;7.75;4.22;;;30.20;90.50;;;;;;5030058;28;20043;-63
2023/09/09 12:13:45;;;;;;;8.10;4.40;;;30.30;91.30;;;;;;4950898;28;20538;-62
2023/09/09 12:16:11;;;;;;;5.78;3.25;;;30.30;90.60;;;;;;4949685;29;20569;-63
2023/09/09 12:18:38;;;;;;;5.15;3.35;;;30.00;90.20;;;;;;5016664;28;20086;-63
2023/09/09 12:21:10;;;;;;;4.75;2.97;;;29.80;90.20;;;;;;4986232;28;20042;-63
2023/09/09 12:23:40;;;;;;;7.13;3.20;;;29.70;90.20;;;;;;5055896;28;20050;-63
2023/09/09 12:26:17;;;;;;;5.47;3.22;;;29.70;90.70;;;;;;5054569;28;20086;-62
2023/09/09 12:29:07;;;;;;;7.35;4.03;;;29.80;90.40;;;;;;4969447;28;20474;-62
2023/09/09 12:31:48;;;;;;;6.55;3.42;;;29.90;90.20;;;;;;4969103;28;20062;-63
2023/09/09 12:34:17;;;;;;;5.30;3.47;;;30.00;89.70;;;;;;5037091;28;20096;-62
2023/09/09 12:36:43;;;;;;;6.75;3.65;;;30.20;90.00;;;;;;5042335;28;20100;-63
2023/09/09 12:39:09;;;;;;;6.18;3.10;;;30.20;90.00;;;;;;5054026;28;20049;-62
2023/09/09 12:41:35;;;;;;;6.70;3.80;;;30.30;90.10;;;;;;5054354;28;20039;-62
2023/09/09 12:44:07;;;;;;;10.55;5.28;;;30.50;90.40;;;;;;5070399;28;20396;-63